Time;durP1;ratioP1;P1;durP2;ratioP2;P2;SDS_P1;SDS_P2;PMS_P1;PMS_P2;Temp;Humidity;BMP_temperature;BMP_pressure;BME280_temperature;BME280_humidity;BME280_pressure;Samples;Min_cycle;Max_cycle;Signal;HPM_P1;HPM_P2
2021/05/25 00:01:22;;;;;;;;;0.00;0.00;;;;;-144.08;100.00;62200.94;5041264;28;45263;-60
2021/05/25 00:03:47;;;;;;;;;0.00;0.00;;;;;-144.08;100.00;62200.94;5041913;28;45350;-60
2021/05/25 00:06:12;;;;;;;;;0.00;0.00;;;;;-144.08;100.00;62200.94;5041524;28;45347;-60
2021/05/25 00:08:38;;;;;;;;;0.00;0.00;;;;;-144.08;100.00;62200.94;5041422;28;45266;-60
2021/05/25 00:11:05;;;;;;;;;0.00;0.00;;;;;-144.08;100.00;62200.94;5040755;28;45275;-61
2021/05/25 00:13:30;;;;;;;;;0.00;0.00;;;;;-144.08;100.00;62200.94;5033248;28;45234;-60
2021/05/25 00:15:55;;;;;;;;;0.00;0.00;;;;;-144.08;100.00;62200.94;5041020;28;45249;-61
2021/05/25 00:18:21;;;;;;;;;0.00;0.00;;;;;-144.08;100.00;62200.94;5041190;28;45537;-59
2021/05/25 00:20:48;;;;;;;;;0.00;0.00;;;;;-144.08;100.00;62200.94;5041009;28;45443;-60
2021/05/25 00:23:14;;;;;;;;;0.00;0.00;;;;;-144.08;100.00;62200.94;5041473;28;45410;-61
2021/05/25 00:25:40;;;;;;;;;0.00;0.00;;;;;-144.08;100.00;62200.94;5041321;28;45478;-61
2021/05/25 00:28:05;;;;;;;;;0.00;0.00;;;;;-144.08;100.00;62200.94;5038099;28;45442;-61
2021/05/25 00:30:31;;;;;;;;;0.00;0.00;;;;;-144.08;100.00;62200.94;5039711;28;45362;-60
2021/05/25 00:32:56;;;;;;;;;0.00;0.00;;;;;-144.08;100.00;62200.94;5040915;28;45451;-60
2021/05/25 00:35:22;;;;;;;;;0.00;0.00;;;;;-144.08;100.00;62200.94;5041116;28;45592;-61
2021/05/25 00:37:47;;;;;;;;;0.00;0.00;;;;;-144.08;100.00;62200.94;5041040;28;45477;-60
2021/05/25 00:40:13;;;;;;;;;0.00;0.00;;;;;-144.08;100.00;62200.94;5040953;28;45362;-61
2021/05/25 00:42:41;;;;;;;;;0.00;0.00;;;;;-144.08;100.00;62200.94;5041295;28;45244;-60
2021/05/25 00:45:08;;;;;;;;;0.00;0.00;;;;;-144.08;100.00;62200.94;5040753;28;45493;-60
2021/05/25 00:47:36;;;;;;;;;0.00;0.00;;;;;-144.08;100.00;62200.94;5040705;28;46449;-60
2021/05/25 00:50:12;;;;;;;;;0.00;0.00;;;;;-144.08;100.00;62200.94;5040854;28;45235;-60
2021/05/25 00:52:42;;;;;;;;;0.00;0.00;;;;;-144.08;100.00;62200.94;5041017;28;45245;-60
2021/05/25 00:55:12;;;;;;;;;0.00;0.00;;;;;-144.08;100.00;62200.94;5041150;28;45453;-60
2021/05/25 00:57:37;;;;;;;;;0.00;0.00;;;;;-144.08;100.00;62200.94;5040657;28;46801;-60
2021/05/25 01:00:05;;;;;;;;;0.00;0.00;;;;;-144.08;100.00;62200.94;5040775;28;45221;-61
2021/05/25 01:02:32;;;;;;;;;0.00;0.00;;;;;-144.08;100.00;62200.94;5040816;28;45235;-61
2021/05/25 01:04:59;;;;;;;;;0.00;0.00;;;;;-144.08;100.00;62200.94;5041404;28;45421;-61
2021/05/25 01:07:25;;;;;;;;;0.00;0.00;;;;;-144.08;100.00;62200.94;5033889;28;46084;-60
2021/05/25 01:09:52;;;;;;;;;0.00;0.00;;;;;-144.08;100.00;62200.94;5044287;28;45298;-61
2021/05/25 01:12:18;;;;;;;;;0.00;0.00;;;;;-144.08;100.00;62200.94;5044395;28;45459;-61
2021/05/25 01:14:50;;;;;;;;;0.00;0.00;;;;;-144.08;100.00;62200.94;5044644;28;45335;-60
2021/05/25 01:17:15;;;;;;;;;0.00;0.00;;;;;-144.08;100.00;62200.94;5043938;28;45432;-61
2021/05/25 01:19:41;;;;;;;;;0.00;0.00;;;;;-144.08;100.00;62200.94;5044339;28;45306;-61
2021/05/25 01:22:06;;;;;;;;;0.00;0.00;;;;;-144.08;100.00;62200.94;5041587;28;45498;-61
2021/05/25 01:24:32;;;;;;;;;0.00;0.00;;;;;-144.08;100.00;62200.94;5044661;28;45328;-61
2021/05/25 01:27:05;;;;;;;;;0.00;0.00;;;;;-144.08;100.00;62200.94;5043861;28;46693;-61
2021/05/25 01:29:32;;;;;;;;;0.00;0.00;;;;;-144.08;100.00;62200.94;5044348;28;45319;-61
2021/05/25 01:31:58;;;;;;;;;0.00;0.00;;;;;-144.08;100.00;62200.94;5043603;28;45291;-61
2021/05/25 01:34:23;;;;;;;;;0.00;0.00;;;;;-144.08;100.00;62200.94;5044153;28;45333;-60
2021/05/25 01:36:49;;;;;;;;;0.00;0.00;;;;;-144.08;100.00;62200.94;5043837;28;45244;-60
2021/05/25 01:39:15;;;;;;;;;0.00;0.00;;;;;-144.08;100.00;62200.94;5043984;28;45217;-61
2021/05/25 01:41:40;;;;;;;;;0.00;0.00;;;;;-144.08;100.00;62200.94;5041104;28;45304;-60
2021/05/25 01:44:06;;;;;;;;;0.00;0.00;;;;;-144.08;100.00;62200.94;5044266;28;45371;-60
2021/05/25 01:46:32;;;;;;;;;0.00;0.00;;;;;-144.08;100.00;62200.94;5043087;28;46523;-60
2021/05/25 01:48:57;;;;;;;;;0.00;0.00;;;;;-144.08;100.00;62200.94;5043919;28;45498;-60
2021/05/25 01:51:23;;;;;;;;;0.00;0.00;;;;;-144.08;100.00;62200.94;5043662;28;45310;-60
2021/05/25 01:53:48;;;;;;;;;0.00;0.00;;;;;-144.08;100.00;62200.94;5043908;28;45336;-60
2021/05/25 01:56:16;;;;;;;;;0.00;0.00;;;;;-144.08;100.00;62200.94;5043147;28;45345;-60
2021/05/25 01:58:42;;;;;;;;;0.00;0.00;;;;;-144.08;100.00;62200.94;5043522;28;45183;-60
2021/05/25 02:01:10;;;;;;;;;0.00;0.00;;;;;-144.08;100.00;62200.94;5043138;28;45326;-60
2021/05/25 02:03:36;;;;;;;;;0.00;0.00;;;;;-144.08;100.00;62200.94;5044010;28;45300;-59
2021/05/25 02:06:03;;;;;;;;;0.00;0.00;;;;;-144.08;100.00;62200.94;5043177;28;45343;-61
2021/05/25 02:08:29;;;;;;;;;0.00;0.00;;;;;-144.08;100.00;62200.94;5043348;28;45423;-59
2021/05/25 02:10:57;;;;;;;;;0.00;0.00;;;;;-144.08;100.00;62200.94;5043259;28;45368;-60
2021/05/25 02:13:25;;;;;;;;;0.00;0.00;;;;;-144.08;100.00;62200.94;5043618;28;45555;-60
2021/05/25 02:15:56;;;;;;;;;0.00;0.00;;;;;-144.08;100.00;62200.94;5042693;28;45533;-61
2021/05/25 02:18:24;;;;;;;;;0.00;0.00;;;;;-144.08;100.00;62200.94;5037212;28;45378;-60
2021/05/25 02:20:53;;;;;;;;;0.00;0.00;;;;;-144.08;100.00;62200.94;5042017;28;45339;-60
2021/05/25 02:23:19;;;;;;;;;0.00;0.00;;;;;-144.08;100.00;62200.94;5043172;28;45412;-60
2021/05/25 02:25:45;;;;;;;;;0.00;0.00;;;;;-144.08;100.00;62200.94;5042893;28;46229;-60
2021/05/25 02:28:11;;;;;;;;;0.00;0.00;;;;;-144.08;100.00;62200.94;5043004;28;45332;-60
2021/05/25 02:30:38;;;;;;;;;0.00;0.00;;;;;-144.08;100.00;62200.94;5042840;28;45158;-60
2021/05/25 02:33:06;;;;;;;;;0.00;0.00;;;;;-144.08;100.00;62200.94;5042701;28;45234;-60
2021/05/25 02:35:33;;;;;;;;;0.00;0.00;;;;;-144.08;100.00;62200.94;5042556;28;46318;-60
2021/05/25 02:37:58;;;;;;;;;0.00;0.00;;;;;-144.08;100.00;62200.94;5043045;28;45343;-60
2021/05/25 02:40:25;;;;;;;;;0.00;0.00;;;;;-144.08;100.00;62200.94;5042888;28;45454;-60
2021/05/25 02:42:51;;;;;;;;;0.00;0.00;;;;;-144.08;100.00;62200.94;5043073;28;45344;-60
2021/05/25 02:45:16;;;;;;;;;0.00;0.00;;;;;-144.08;100.00;62200.94;5042406;28;45279;-60
2021/05/25 02:47:42;;;;;;;;;0.00;0.00;;;;;-144.08;100.00;62200.94;5042543;28;45533;-60
2021/05/25 02:50:08;;;;;;;;;0.00;0.00;;;;;-144.08;100.00;62200.94;5042859;28;45540;-61
2021/05/25 02:52:39;;;;;;;;;0.00;0.00;;;;;-144.08;100.00;62200.94;5043031;28;45522;-61
2021/05/25 02:55:08;;;;;;;;;0.00;0.00;;;;;-144.08;100.00;62200.94;5042631;28;46252;-60
2021/05/25 02:57:33;;;;;;;;;0.00;0.00;;;;;-144.08;100.00;62200.94;5042338;28;45268;-60
2021/05/25 02:59:59;;;;;;;;;0.00;0.00;;;;;-144.08;100.00;62200.94;5035003;28;45647;-60
2021/05/25 03:02:25;;;;;;;;;0.00;0.00;;;;;-144.08;100.00;62200.94;5042442;28;45268;-60
2021/05/25 03:04:50;;;;;;;;;0.00;0.00;;;;;-144.08;100.00;62200.94;5042535;28;45409;-60
2021/05/25 03:07:15;;;;;;;;;0.00;0.00;;;;;-144.08;100.00;62200.94;5042524;28;45201;-61
2021/05/25 03:09:41;;;;;;;;;0.00;0.00;;;;;-144.08;100.00;62200.94;5042577;28;45796;-60
2021/05/25 03:12:07;;;;;;;;;0.00;0.00;;;;;-144.08;100.00;62200.94;5042275;28;45335;-60
2021/05/25 03:14:33;;;;;;;;;0.00;0.00;;;;;-144.08;100.00;62200.94;5042166;28;46366;-60
2021/05/25 03:16:58;;;;;;;;;0.00;0.00;;;;;-144.08;100.00;62200.94;5041840;28;45397;-61
2021/05/25 03:19:23;;;;;;;;;0.00;0.00;;;;;-144.08;100.00;62200.94;5035710;28;47625;-60
2021/05/25 03:21:49;;;;;;;;;0.00;0.00;;;;;-144.08;100.00;62200.94;5042420;28;45291;-60
2021/05/25 03:24:16;;;;;;;;;0.00;0.00;;;;;-144.08;100.00;62200.94;5042158;28;45347;-61
2021/05/25 03:26:41;;;;;;;;;0.00;0.00;;;;;-144.08;100.00;62200.94;5024128;28;45280;-60
2021/05/25 03:29:07;;;;;;;;;0.00;0.00;;;;;-144.08;100.00;62200.94;5042322;28;45201;-60
2021/05/25 03:31:32;;;;;;;;;0.00;0.00;;;;;-144.08;100.00;62200.94;5042011;28;45471;-60
2021/05/25 03:33:57;;;;;;;;;0.00;0.00;;;;;-144.08;100.00;62200.94;5040448;28;45425;-61
2021/05/25 03:36:23;;;;;;;;;0.00;0.00;;;;;-144.08;100.00;62200.94;5035478;28;45336;-60
2021/05/25 03:38:48;;;;;;;;;0.00;0.00;;;;;-144.08;100.00;62200.94;5042228;28;45422;-60
2021/05/25 03:41:13;;;;;;;;;0.00;0.00;;;;;-144.08;100.00;62200.94;5042084;28;45319;-60
2021/05/25 03:43:38;;;;;;;;;0.00;0.00;;;;;-144.08;100.00;62200.94;5041825;28;45418;-60
2021/05/25 03:46:04;;;;;;;;;0.00;0.00;;;;;-144.08;100.00;62200.94;5041532;28;46340;-60
2021/05/25 03:48:29;;;;;;;;;0.00;0.00;;;;;-144.08;100.00;62200.94;5028724;28;45431;-60
2021/05/25 03:50:54;;;;;;;;;0.00;0.00;;;;;-144.08;100.00;62200.94;5042180;28;45213;-61
2021/05/25 03:53:20;;;;;;;;;0.00;0.00;;;;;-144.08;100.00;62200.94;5041693;28;46722;-60
2021/05/25 04:00:55;;;;;;;;;0.00;0.00;;;;;-144.08;100.00;62200.94;5041697;28;45276;-60
2021/05/25 04:03:22;;;;;;;;;0.00;0.00;;;;;-144.08;100.00;62200.94;5041534;28;46757;-60
2021/05/25 04:05:48;;;;;;;;;0.00;0.00;;;;;-144.08;100.00;62200.94;5041412;28;45392;-60
2021/05/25 04:08:14;;;;;;;;;0.00;0.00;;;;;-144.08;100.00;62200.94;5041512;28;45481;-60
2021/05/25 04:10:39;;;;;;;;;0.00;0.00;;;;;-144.08;100.00;62200.94;5041573;28;45302;-60
2021/05/25 04:13:05;;;;;;;;;0.00;0.00;;;;;-144.08;100.00;62200.94;5038936;28;45990;-61
2021/05/25 04:15:33;;;;;;;;;0.00;0.00;;;;;-144.08;100.00;62200.94;5036565;28;45560;-61
2021/05/25 04:17:59;;;;;;;;;0.00;0.00;;;;;-144.08;100.00;62200.94;5041158;28;45331;-60
2021/05/25 04:20:24;;;;;;;;;0.00;0.00;;;;;-144.08;100.00;62200.94;5041505;28;45213;-60
2021/05/25 04:22:49;;;;;;;;;0.00;0.00;;;;;-144.08;100.00;62200.94;5041337;28;46094;-61
2021/05/25 04:25:15;;;;;;;;;0.00;0.00;;;;;-144.08;100.00;62200.94;5040951;28;45182;-61
2021/05/25 04:27:41;;;;;;;;;0.00;0.00;;;;;-144.08;100.00;62200.94;5041299;28;45406;-60
2021/05/25 04:30:09;;;;;;;;;0.00;0.00;;;;;-144.08;100.00;62200.94;5040922;28;45344;-60
2021/05/25 04:32:34;;;;;;;;;0.00;0.00;;;;;-144.08;100.00;62200.94;5040635;28;46380;-61
2021/05/25 04:35:00;;;;;;;;;0.00;0.00;;;;;-144.08;100.00;62200.94;5041038;28;45346;-61
2021/05/25 04:37:25;;;;;;;;;0.00;0.00;;;;;-144.08;100.00;62200.94;5040899;28;45375;-62
2021/05/25 04:39:51;;;;;;;;;0.00;0.00;;;;;-144.08;100.00;62200.94;5041039;28;45321;-61
2021/05/25 04:42:16;;;;;;;;;0.00;0.00;;;;;-144.08;100.00;62200.94;5040577;28;46333;-60
2021/05/25 04:44:42;;;;;;;;;0.00;0.00;;;;;-144.08;100.00;62200.94;5040565;28;45248;-61
2021/05/25 04:47:08;;;;;;;;;0.00;0.00;;;;;-144.08;100.00;62200.94;5040855;28;45480;-61
2021/05/25 04:49:35;;;;;;;;;0.00;0.00;;;;;-144.08;100.00;62200.94;5040881;28;45478;-61
2021/05/25 04:52:00;;;;;;;;;0.00;0.00;;;;;-144.08;100.00;62200.94;5040822;28;46508;-60
2021/05/25 04:54:26;;;;;;;;;0.00;0.00;;;;;-144.08;100.00;62200.94;5040702;28;45452;-61
2021/05/25 04:56:53;;;;;;;;;0.00;0.00;;;;;-144.08;100.00;62200.94;5030730;28;45591;-61
2021/05/25 04:59:19;;;;;;;;;0.00;0.00;;;;;-144.08;100.00;62200.94;5040900;28;45426;-61
2021/05/25 05:01:44;;;;;;;;;0.00;0.00;;;;;-144.08;100.00;62200.94;5040191;28;45506;-61
2021/05/25 05:04:09;;;;;;;;;0.00;0.00;;;;;-144.08;100.00;62200.94;5040612;28;45331;-61
2021/05/25 05:06:35;;;;;;;;;0.00;0.00;;;;;-144.08;100.00;62200.94;5040846;28;45522;-61
2021/05/25 05:09:00;;;;;;;;;0.00;0.00;;;;;-144.08;100.00;62200.94;5040821;28;45311;-61
2021/05/25 05:11:25;;;;;;;;;0.00;0.00;;;;;-144.08;100.00;62200.94;5040272;28;45296;-61
2021/05/25 05:13:51;;;;;;;;;0.00;0.00;;;;;-144.08;100.00;62200.94;5040558;28;45457;-61
2021/05/25 05:16:16;;;;;;;;;0.00;0.00;;;;;-144.08;100.00;62200.94;5040285;28;45676;-61
2021/05/25 05:18:41;;;;;;;;;0.00;0.00;;;;;-144.08;100.00;62200.94;5040258;28;45479;-61
2021/05/25 05:21:07;;;;;;;;;0.00;0.00;;;;;-144.08;100.00;62200.94;5040109;28;46531;-62
2021/05/25 05:23:34;;;;;;;;;0.00;0.00;;;;;-144.08;100.00;62200.94;5040410;28;45251;-61
2021/05/25 05:25:59;;;;;;;;;0.00;0.00;;;;;-144.08;100.00;62200.94;5040499;28;45138;-61
2021/05/25 05:28:25;;;;;;;;;0.00;0.00;;;;;-144.08;100.00;62200.94;5030864;28;45350;-61
2021/05/25 05:30:50;;;;;;;;;0.00;0.00;;;;;-144.08;100.00;62200.94;5039457;28;56297;-61
2021/05/25 05:33:15;;;;;;;;;0.00;0.00;;;;;-144.08;100.00;62200.94;5021726;28;45240;-61
2021/05/25 05:35:41;;;;;;;;;0.00;0.00;;;;;-144.08;100.00;62200.94;5040158;28;45406;-61
2021/05/25 05:38:07;;;;;;;;;0.00;0.00;;;;;-144.08;100.00;62200.94;5036480;28;45246;-61
2021/05/25 05:40:34;;;;;;;;;0.00;0.00;;;;;-144.08;100.00;62200.94;5040122;28;46160;-62
2021/05/25 05:43:00;;;;;;;;;0.00;0.00;;;;;-144.08;100.00;62200.94;5039811;28;45462;-61
2021/05/25 05:45:25;;;;;;;;;0.00;0.00;;;;;-144.08;100.00;62200.94;5039935;28;45337;-61
2021/05/25 05:47:50;;;;;;;;;0.00;0.00;;;;;-144.08;100.00;62200.94;5039657;28;45300;-62
2021/05/25 05:50:16;;;;;;;;;0.00;0.00;;;;;-144.08;100.00;62200.94;5028567;28;45406;-62
2021/05/25 05:52:41;;;;;;;;;0.00;0.00;;;;;-144.08;100.00;62200.94;5039482;28;45356;-61
2021/05/25 05:55:07;;;;;;;;;0.00;0.00;;;;;-144.08;100.00;62200.94;5043206;28;45310;-60
2021/05/25 05:57:33;;;;;;;;;0.00;0.00;;;;;-144.08;100.00;62200.94;5043093;28;45528;-61
2021/05/25 05:59:59;;;;;;;;;0.00;0.00;;;;;-144.08;100.00;62200.94;5042643;28;46532;-61
2021/05/25 06:02:25;;;;;;;;;0.00;0.00;;;;;-144.08;100.00;62200.94;5032028;28;45300;-61
2021/05/25 06:04:50;;;;;;;;;0.00;0.00;;;;;-144.08;100.00;62200.94;5035571;28;45387;-62
2021/05/25 06:07:16;;;;;;;;;0.00;0.00;;;;;-144.08;100.00;62200.94;5041436;28;45311;-61
2021/05/25 06:09:42;;;;;;;;;0.00;0.00;;;;;-144.08;100.00;62200.94;5031440;28;46207;-62
2021/05/25 06:12:08;;;;;;;;;0.00;0.00;;;;;-144.08;100.00;62200.94;5035496;28;45391;-62
2021/05/25 06:14:33;;;;;;;;;0.00;0.00;;;;;-144.08;100.00;62200.94;5042183;28;45307;-61
2021/05/25 06:16:59;;;;;;;;;0.00;0.00;;;;;-144.08;100.00;62200.94;5036107;28;45371;-61
2021/05/25 06:19:24;;;;;;;;;0.00;0.00;;;;;-144.08;100.00;62200.94;5034885;28;45395;-61
2021/05/25 06:21:50;;;;;;;;;0.00;0.00;;;;;-144.08;100.00;62200.94;5040796;28;45370;-61
2021/05/25 06:24:15;;;;;;;;;0.00;0.00;;;;;-144.08;100.00;62200.94;5042314;28;45374;-61
2021/05/25 06:26:41;;;;;;;;;0.00;0.00;;;;;-144.08;100.00;62200.94;5042429;28;45378;-61
2021/05/25 06:29:06;;;;;;;;;0.00;0.00;;;;;-144.08;100.00;62200.94;5040363;28;46346;-62
2021/05/25 06:31:31;;;;;;;;;0.00;0.00;;;;;-144.08;100.00;62200.94;5028828;28;45241;-62
2021/05/25 06:33:57;;;;;;;;;0.00;0.00;;;;;-144.08;100.00;62200.94;5037172;28;45303;-63
2021/05/25 06:36:22;;;;;;;;;0.00;0.00;;;;;-144.08;100.00;62200.94;5034192;28;45592;-61
2021/05/25 06:38:47;;;;;;;;;0.00;0.00;;;;;-144.08;100.00;62200.94;5032438;28;46288;-61
2021/05/25 06:41:13;;;;;;;;;0.00;0.00;;;;;-144.08;100.00;62200.94;5040963;28;45229;-62
2021/05/25 06:43:38;;;;;;;;;0.00;0.00;;;;;-144.08;100.00;62200.94;5032304;28;45501;-62
2021/05/25 06:46:06;;;;;;;;;0.00;0.00;;;;;-144.08;100.00;62200.94;5041013;28;45213;-61
2021/05/25 06:48:31;;;;;;;;;0.00;0.00;;;;;-144.08;100.00;62200.94;5041437;28;47101;-61
2021/05/25 06:50:56;;;;;;;;;0.00;0.00;;;;;-144.08;100.00;62200.94;5041862;28;45299;-61
2021/05/25 06:53:22;;;;;;;;;0.00;0.00;;;;;-144.08;100.00;62200.94;5055605;28;45389;-60
2021/05/25 06:56:34;;;;;;;;;0.00;0.00;;;;;16.29;52.28;101332.72;5115946;27;45442;-58
2021/05/25 06:58:59;;;;;;;;;0.00;0.00;;;;;16.63;51.60;101334.03;5096683;27;45457;-60
2021/05/25 07:01:25;;;;;;;;;0.00;0.00;;;;;16.79;51.24;101339.59;5096845;27;45365;-59
2021/05/25 07:03:52;;;;;;;;;0.00;0.00;;;;;16.97;49.58;101343.16;5097621;27;45424;-60
2021/05/25 07:06:19;;;;;;;;;0.00;0.00;;;;;16.93;50.30;101347.13;5079822;27;46262;-59
2021/05/25 07:08:44;;;;;;;;;0.00;0.00;;;;;17.01;50.02;101344.53;5077006;28;45337;-59
2021/05/25 07:11:09;;;;;;;;;0.00;0.00;;;;;17.19;49.63;101335.81;5087133;27;45547;-59
2021/05/25 07:13:35;;;;;;;;;0.00;0.00;;;;;17.35;49.79;101337.84;5077725;28;45351;-59
2021/05/25 07:16:00;;;;;;;;;0.00;0.00;;;;;17.65;48.67;101346.44;5087627;27;47869;-59
2021/05/25 07:18:25;;;;;;;;;0.00;0.00;;;;;17.89;47.01;101348.53;5076856;27;45522;-59
2021/05/25 07:20:51;;;;;;;;;0.00;0.00;;;;;17.99;47.25;101351.94;5082388;27;45478;-60
2021/05/25 07:23:16;;;;;;;;;0.00;0.00;;;;;18.24;47.07;101350.31;5097469;27;45312;-59
2021/05/25 07:25:42;;;;;;;;;0.00;0.00;;;;;18.20;46.78;101346.31;5097292;27;45629;-59
2021/05/25 07:28:07;;;;;;;;;0.00;0.00;;;;;18.29;46.63;101348.03;5090944;27;45476;-59
2021/05/25 07:30:33;;;;;;;;;0.00;0.00;;;;;18.64;46.56;101349.78;5086986;27;45328;-59
2021/05/25 07:32:58;;;;;;;;;0.00;0.00;;;;;19.11;44.36;101353.03;5079541;27;45860;-59
2021/05/25 07:35:23;;;;;;;;;0.00;0.00;;;;;19.25;45.28;101358.59;5094588;27;45483;-59
2021/05/25 07:37:49;;;;;;;;;0.00;0.00;;;;;19.24;44.12;101348.09;5093194;27;45327;-60
2021/05/25 07:40:16;;;;;;;;;0.00;0.00;;;;;19.65;43.67;101357.06;5094512;27;45216;-60
2021/05/25 07:42:42;;;;;;;;;0.00;0.00;;;;;19.86;43.17;101367.25;5088390;27;45592;-59
2021/05/25 07:45:08;;;;;;;;;0.00;0.00;;;;;19.86;43.11;101366.44;5094156;27;45415;-59
2021/05/25 07:47:34;;;;;;;;;0.00;0.00;;;;;19.85;42.80;101351.44;5081887;27;45336;-60
2021/05/25 07:50:12;;;;;;;;;0.00;0.00;;;;;19.90;42.94;101357.09;5091824;27;45243;-60
2021/05/25 07:52:40;;;;;;;;;0.00;0.00;;;;;20.01;41.43;101369.28;5082509;27;45298;-59
2021/05/25 07:55:06;;;;;;;;;0.00;0.00;;;;;20.07;42.32;101361.44;5085248;27;45502;-60
2021/05/25 07:57:31;;;;;;;;;0.00;0.00;;;;;20.05;41.63;101355.44;5087686;27;45180;-59
2021/05/25 07:59:57;;;;;;;;;0.00;0.00;;;;;20.00;41.29;101367.59;5082372;27;45246;-59
2021/05/25 08:02:22;;;;;;;;;0.00;0.00;;;;;20.01;42.00;101367.44;5078635;27;45593;-60
2021/05/25 08:04:47;;;;;;;;;0.00;0.00;;;;;19.93;41.70;101363.94;5077806;27;49544;-60
2021/05/25 08:07:13;;;;;;;;;0.00;0.00;;;;;20.32;41.29;101358.75;5067018;28;45377;-59
2021/05/25 08:09:38;;;;;;;;;0.00;0.00;;;;;20.82;40.70;101362.19;5065953;28;45531;-59
2021/05/25 08:12:04;;;;;;;;;0.00;0.00;;;;;20.97;40.25;101362.31;5069711;28;45570;-59
2021/05/25 08:14:30;;;;;;;;;0.00;0.00;;;;;21.18;39.69;101359.09;5062165;28;46602;-60
2021/05/25 08:17:04;;;;;;;;;0.00;0.00;;;;;21.50;39.63;101358.94;5063463;28;45306;-59
2021/05/25 08:19:31;;;;;;;;;0.00;0.00;;;;;21.85;38.57;101359.38;5062914;28;45397;-59
2021/05/25 08:21:56;;;;;;;;;0.00;0.00;;;;;22.11;37.34;101361.69;5064305;28;45435;-59
2021/05/25 08:24:22;;;;;;;;;0.00;0.00;;;;;22.40;37.34;101370.03;5062244;28;45466;-60
2021/05/25 08:26:47;;;;;;;;;0.00;0.00;;;;;23.11;36.72;101363.25;5062693;28;45303;-60
2021/05/25 08:29:12;;;;;;;;;0.00;0.00;;;;;23.71;34.91;101365.78;5062877;28;45223;-60
2021/05/25 08:31:38;;;;;;;;;0.00;0.00;;;;;24.36;34.96;101369.28;5071245;28;45389;-59
2021/05/25 08:34:03;;;;;;;;;0.00;0.00;;;;;24.47;32.11;101375.97;5082429;28;46930;-59
2021/05/25 08:36:32;;;;;;;;;0.00;0.00;;;;;24.60;31.82;101380.63;5082305;28;45315;-59
2021/05/25 08:38:58;;;;;;;;;0.00;0.00;;;;;24.55;32.65;101371.31;5065708;27;45299;-59
2021/05/25 08:41:24;;;;;;;;;0.00;0.00;;;;;26.02;32.46;101373.78;5069137;28;45231;-60
2021/05/25 08:43:49;;;;;;;;;0.00;0.00;;;;;27.48;30.67;101362.72;5082325;28;45296;-59
2021/05/25 08:46:15;;;;;;;;;0.00;0.00;;;;;27.26;28.94;101374.84;5078378;28;45325;-60
2021/05/25 08:48:41;;;;;;;;;0.00;0.00;;;;;26.88;28.36;101368.34;5076181;28;45392;-60
2021/05/25 08:51:08;;;;;;;;;0.00;0.00;;;;;26.21;29.38;101362.19;5082797;28;45519;-59
2021/05/25 08:53:34;;;;;;;;;0.00;0.00;;;;;25.59;29.52;101369.53;5070653;28;45322;-59
2021/05/25 08:56:01;;;;;;;;;0.00;0.00;;;;;25.84;30.03;101375.19;5064633;28;45426;-59
2021/05/25 08:58:26;;;;;;;;;0.00;0.00;;;;;26.06;28.20;101373.16;5078412;28;45259;-61
2021/05/25 09:00:54;;;;;;;;;0.00;0.00;;;;;25.49;29.36;101366.44;5065587;28;45592;-59
2021/05/25 09:03:20;;;;;;;;;0.00;0.00;;;;;24.87;29.13;101362.84;5060146;28;47371;-60
2021/05/25 09:06:06;;;;;;;;;0.00;0.00;;;;;24.69;29.55;101366.88;5065362;28;45484;-60
2021/05/25 09:08:31;;;;;;;;;0.00;0.00;;;;;25.47;29.45;101369.31;5062109;28;45483;-59
2021/05/25 09:11:04;;;;;;;;;0.00;0.00;;;;;27.46;28.41;101370.19;5061963;28;45332;-60
2021/05/25 09:13:30;;;;;;;;;0.00;0.00;;;;;27.72;27.67;101369.22;5065078;28;46429;-60
2021/05/25 09:15:58;;;;;;;;;0.00;0.00;;;;;26.91;26.09;101376.00;5060906;28;45317;-59
2021/05/25 09:18:29;;;;;;;;;0.00;0.00;;;;;25.78;28.19;101366.06;5066264;28;45320;-61
2021/05/25 09:20:59;;;;;;;;;0.00;0.00;;;;;24.75;28.36;101371.44;5066488;28;46126;-60
2021/05/25 09:23:34;;;;;;;;;0.00;0.00;;;;;23.93;29.92;101380.91;5075413;28;46346;-59
2021/05/25 09:26:06;;;;;;;;;0.00;0.00;;;;;23.63;30.44;101368.56;5069085;28;45531;-61
2021/05/25 09:28:32;;;;;;;;;0.00;0.00;;;;;23.52;31.02;101357.34;5064252;27;45344;-60
2021/05/25 09:30:58;;;;;;;;;0.00;0.00;;;;;25.05;29.70;101363.13;5062626;28;45498;-60
2021/05/25 09:33:24;;;;;;;;;0.00;0.00;;;;;25.31;28.53;101362.44;5063076;27;46203;-60
2021/05/25 09:35:50;;;;;;;;;0.00;0.00;;;;;25.12;28.93;101355.94;5060875;28;45390;-60
2021/05/25 09:38:26;;;;;;;;;0.00;0.00;;;;;25.98;28.90;101360.75;5077637;27;45395;-59
2021/05/25 09:42:41;;;;;;;;;0.00;0.00;;;;;26.66;27.02;101354.31;5010758;28;45415;-58
2021/05/25 09:45:12;;;;;;;;;0.00;0.00;;;;;26.05;27.51;101351.84;4988696;28;45333;-59
2021/05/25 09:47:37;;;;;;;;;0.00;0.00;;;;;25.29;28.58;101360.97;4985665;28;45346;-59
2021/05/25 09:50:04;;;;;;;;;0.00;0.00;;;;;24.55;29.07;101363.25;4979463;28;45614;-59
2021/05/25 09:52:30;;;;;;;;;0.00;0.00;;;;;23.75;29.83;101359.88;4980529;28;45360;-59
2021/05/25 09:55:10;;;;;;;;;0.00;0.00;;;;;22.97;30.45;101356.00;4981116;28;45371;-60
2021/05/25 09:57:46;;;;;;;;;0.00;0.00;;;;;22.20;31.32;101351.78;4971876;28;45305;-58
2021/05/25 10:00:35;;;;;;;;;0.00;0.00;;;;;21.58;32.42;101362.59;4973394;28;45603;-59
2021/05/25 10:03:14;;;;;;;;;1.00;0.00;;;;;21.13;32.83;101367.63;4973095;28;46108;-59
2021/05/25 10:05:44;;;;;;;;;0.00;0.00;;;;;20.79;33.42;101365.22;4979775;28;45441;-60
2021/05/25 10:08:10;;;;;;;;;0.00;0.00;;;;;20.49;33.75;101368.41;4978889;28;45478;-58
2021/05/25 10:10:35;;;;;;;;;2.00;0.00;;;;;20.14;34.43;101374.13;5006943;27;45574;-60
2021/05/25 10:13:01;;;;;;;;;0.00;0.00;;;;;19.71;35.58;101382.22;4993217;28;45565;-59
2021/05/25 10:15:28;;;;;;;;;0.00;0.00;;;;;19.34;36.96;101390.59;4989467;27;45329;-59
2021/05/25 10:20:29;;;;;;;;;0.00;0.00;;;;;18.85;38.55;101393.81;4983620;28;45397;-59
2021/05/25 10:22:55;;;;;;;;;0.00;0.00;;;;;18.72;39.70;101420.00;4979261;28;46606;-59
2021/05/25 10:25:21;;;;;;;;;0.00;0.00;;;;;18.61;43.40;101431.72;4973354;28;45181;-59
2021/05/25 10:27:48;;;;;;;;;0.00;0.00;;;;;18.57;42.20;101435.69;5001300;27;45271;-59
2021/05/25 10:30:22;;;;;;;;;0.00;0.00;;;;;18.42;42.53;101443.38;4976537;28;46849;-59
2021/05/25 10:33:04;;;;;;;;;0.00;0.00;;;;;18.26;42.86;101430.78;4981246;28;46296;-59
2021/05/25 10:35:58;;;;;;;;;0.00;0.00;;;;;18.14;43.25;101429.31;4996506;28;45257;-59
2021/05/25 10:38:29;;;;;;;;;0.00;0.00;;;;;18.12;43.93;101432.16;4972977;28;45255;-59
2021/05/25 10:41:03;;;;;;;;;0.00;0.00;;;;;18.25;43.56;101434.44;4978539;28;45556;-59
2021/05/25 10:43:34;;;;;;;;;0.00;0.00;;;;;18.22;43.40;101437.38;4995495;28;45540;-59
2021/05/25 10:46:11;;;;;;;;;0.00;0.00;;;;;18.15;43.59;101439.00;4994786;27;45159;-60
2021/05/25 10:49:16;;;;;;;;;0.00;0.00;;;;;18.02;44.18;101428.72;4994326;28;45175;-60
2021/05/25 10:51:45;;;;;;;;;0.00;0.00;;;;;17.98;44.89;101437.97;5000383;27;45463;-55
2021/05/25 10:54:47;;;;;;;;;1.00;1.00;;;;;18.02;44.62;101442.00;4981008;28;46681;-61
2021/05/25 10:57:47;;;;;;;;;0.00;0.00;;;;;18.33;44.36;101429.16;4982755;28;45260;-59
2021/05/25 11:00:13;;;;;;;;;0.00;0.00;;;;;18.61;44.16;101415.75;4980068;28;45260;-59
2021/05/25 11:03:00;;;;;;;;;0.00;0.00;;;;;18.71;43.81;101426.31;4979675;28;45205;-59
2021/05/25 11:05:35;;;;;;;;;0.00;0.00;;;;;18.83;43.75;101419.75;4979383;28;45799;-61
2021/05/25 11:08:07;;;;;;;;;0.00;0.00;;;;;19.11;43.50;101412.44;4979096;28;45258;-58
2021/05/25 11:10:42;;;;;;;;;0.00;0.00;;;;;19.49;42.67;101417.44;5020938;27;45230;-60
2021/05/25 11:13:16;;;;;;;;;0.00;0.00;;;;;20.01;42.10;101418.09;4981141;27;45703;-60
2021/05/25 11:16:13;;;;;;;;;0.00;0.00;;;;;20.48;41.43;101413.97;4978654;28;45252;-59
2021/05/25 11:20:48;;;;;;;;;0.00;0.00;;;;;20.70;40.87;101415.13;5073855;28;45346;-59
2021/05/25 11:23:38;;;;;;;;;0.00;0.00;;;;;20.79;41.08;101403.44;5052834;28;45443;-59
2021/05/25 11:26:04;;;;;;;;;0.00;0.00;;;;;20.90;39.52;101388.88;5054974;28;45177;-59
2021/05/25 11:29:14;;;;;;;;;0.00;0.00;;;;;21.17;39.16;101398.31;5054721;28;45294;-60